sensor_id;sensor_type;location;lat;lon;timestamp;pressure;altitude;pressure_sealevel;temperature;humidity
76594;BME280;65482;50.240;14.302;2024-03-02T00:00:21;98633.28;;;8.34;78.56
76594;BME280;65482;50.240;14.302;2024-03-02T00:03:07;98635.72;;;8.35;78.73
76594;BME280;65482;50.240;14.302;2024-03-02T00:05:35;98637.03;;;8.31;78.78
76594;BME280;65482;50.240;14.302;2024-03-02T00:08:01;98629.34;;;8.30;78.75
76594;BME280;65482;50.240;14.302;2024-03-02T00:10:37;98632.63;;;8.32;78.66
76594;BME280;65482;50.240;14.302;2024-03-02T00:13:04;98629.00;;;8.33;78.34
76594;BME280;65482;50.240;14.302;2024-03-02T00:15:40;98630.44;;;8.35;78.46
76594;BME280;65482;50.240;14.302;2024-03-02T00:18:19;98628.81;;;8.34;78.13
76594;BME280;65482;50.240;14.302;2024-03-02T00:20:46;98631.47;;;8.34;78.22
76594;BME280;65482;50.240;14.302;2024-03-02T00:23:15;98633.28;;;8.34;78.22
76594;BME280;65482;50.240;14.302;2024-03-02T00:25:43;98632.25;;;8.35;78.46
76594;BME280;65482;50.240;14.302;2024-03-02T00:28:25;98634.41;;;8.40;78.18
76594;BME280;65482;50.240;14.302;2024-03-02T00:31:06;98636.19;;;8.39;78.22
76594;BME280;65482;50.240;14.302;2024-03-02T00:33:36;98634.09;;;8.43;78.15
76594;BME280;65482;50.240;14.302;2024-03-02T00:36:03;98628.03;;;8.42;78.08
76594;BME280;65482;50.240;14.302;2024-03-02T00:38:30;98633.94;;;8.44;78.12
76594;BME280;65482;50.240;14.302;2024-03-02T00:40:58;98626.22;;;8.43;77.92
76594;BME280;65482;50.240;14.302;2024-03-02T00:46:07;98628.84;;;8.43;77.72
76594;BME280;65482;50.240;14.302;2024-03-02T00:48:33;98624.72;;;8.40;77.68
76594;BME280;65482;50.240;14.302;2024-03-02T00:51:02;98626.03;;;8.36;77.82
76594;BME280;65482;50.240;14.302;2024-03-02T00:53:31;98613.22;;;8.33;78.24
76594;BME280;65482;50.240;14.302;2024-03-02T00:55:58;98620.63;;;8.38;78.03
76594;BME280;65482;50.240;14.302;2024-03-02T00:58:25;98620.63;;;8.38;78.17
76594;BME280;65482;50.240;14.302;2024-03-02T01:00:50;98622.91;;;8.41;77.96
76594;BME280;65482;50.240;14.302;2024-03-02T01:03:16;98624.88;;;8.39;77.83
76594;BME280;65482;50.240;14.302;2024-03-02T01:05:42;98620.13;;;8.34;77.87
76594;BME280;65482;50.240;14.302;2024-03-02T01:08:09;98626.84;;;8.36;77.79
76594;BME280;65482;50.240;14.302;2024-03-02T01:10:34;98623.72;;;8.33;77.90
76594;BME280;65482;50.240;14.302;2024-03-02T01:13:00;98622.75;;;8.34;78.01
76594;BME280;65482;50.240;14.302;2024-03-02T01:15:26;98621.09;;;8.33;77.96
76594;BME280;65482;50.240;14.302;2024-03-02T01:17:51;98622.09;;;8.32;78.21
76594;BME280;65482;50.240;14.302;2024-03-02T01:20:17;98625.53;;;8.32;78.29
76594;BME280;65482;50.240;14.302;2024-03-02T01:22:42;98624.75;;;8.32;78.30
76594;BME280;65482;50.240;14.302;2024-03-02T01:25:09;98639.34;;;8.34;78.35
76594;BME280;65482;50.240;14.302;2024-03-02T01:27:34;98627.16;;;8.33;78.26
76594;BME280;65482;50.240;14.302;2024-03-02T01:30:00;98632.13;;;8.28;78.40
76594;BME280;65482;50.240;14.302;2024-03-02T01:32:25;98626.88;;;8.28;78.37
76594;BME280;65482;50.240;14.302;2024-03-02T01:34:51;98631.78;;;8.31;78.59
76594;BME280;65482;50.240;14.302;2024-03-02T01:37:17;98627.38;;;8.32;78.22
76594;BME280;65482;50.240;14.302;2024-03-02T01:39:42;98628.50;;;8.29;78.23
76594;BME280;65482;50.240;14.302;2024-03-02T01:42:08;98624.75;;;8.32;78.33
76594;BME280;65482;50.240;14.302;2024-03-02T01:44:34;98623.72;;;8.33;78.24
76594;BME280;65482;50.240;14.302;2024-03-02T01:46:59;98620.44;;;8.31;78.51
76594;BME280;65482;50.240;14.302;2024-03-02T01:49:25;98625.06;;;8.29;78.52
76594;BME280;65482;50.240;14.302;2024-03-02T01:51:50;98618.84;;;8.30;78.31
76594;BME280;65482;50.240;14.302;2024-03-02T01:54:16;98623.09;;;8.31;78.44
76594;BME280;65482;50.240;14.302;2024-03-02T01:56:42;98623.09;;;8.31;78.31
76594;BME280;65482;50.240;14.302;2024-03-02T01:59:07;98625.72;;;8.31;78.33
76594;BME280;65482;50.240;14.302;2024-03-02T02:01:33;98626.53;;;8.31;78.63
76594;BME280;65482;50.240;14.302;2024-03-02T02:03:59;98621.91;;;8.33;78.48
76594;BME280;65482;50.240;14.302;2024-03-02T02:06:24;98622.75;;;8.34;78.47
76594;BME280;65482;50.240;14.302;2024-03-02T02:08:50;98621.44;;;8.38;78.12
76594;BME280;65482;50.240;14.302;2024-03-02T02:11:16;98619.28;;;8.33;78.50
76594;BME280;65482;50.240;14.302;2024-03-02T02:13:42;98616.66;;;8.33;78.57
76594;BME280;65482;50.240;14.302;2024-03-02T02:16:08;98620.94;;;8.34;78.61
76594;BME280;65482;50.240;14.302;2024-03-02T02:18:34;98619.28;;;8.33;78.53
76594;BME280;65482;50.240;14.302;2024-03-02T02:21:01;98622.91;;;8.32;78.54
76594;BME280;65482;50.240;14.302;2024-03-02T02:23:27;98622.09;;;8.32;78.59
76594;BME280;65482;50.240;14.302;2024-03-02T02:25:53;98614.88;;;8.34;78.46
76594;BME280;65482;50.240;14.302;2024-03-02T02:28:19;98619.13;;;8.35;78.65
76594;BME280;65482;50.240;14.302;2024-03-02T02:30:44;98615.38;;;8.38;78.69
76594;BME280;65482;50.240;14.302;2024-03-02T02:33:10;98614.22;;;8.32;78.24
76594;BME280;65482;50.240;14.302;2024-03-02T02:35:35;98606.50;;;8.30;78.27
76594;BME280;65482;50.240;14.302;2024-03-02T02:38:01;98599.94;;;8.26;78.42
76594;BME280;65482;50.240;14.302;2024-03-02T02:40:28;98604.03;;;8.29;78.61
76594;BME280;65482;50.240;14.302;2024-03-02T02:42:57;98611.09;;;8.28;78.56
76594;BME280;65482;50.240;14.302;2024-03-02T02:45:22;98608.47;;;8.28;78.37
76594;BME280;65482;50.240;14.302;2024-03-02T02:47:48;98616.19;;;8.30;78.90
76594;BME280;65482;50.240;14.302;2024-03-02T02:50:13;98610.28;;;8.28;78.50
76594;BME280;65482;50.240;14.302;2024-03-02T02:52:40;98612.09;;;8.27;78.30
76594;BME280;65482;50.240;14.302;2024-03-02T02:55:13;98611.13;;;8.20;78.95
76594;BME280;65482;50.240;14.302;2024-03-02T02:57:41;98606.38;;;8.24;79.30
76594;BME280;65482;50.240;14.302;2024-03-02T03:00:15;98604.72;;;8.23;79.08
76594;BME280;65482;50.240;14.302;2024-03-02T03:02:42;98609.00;;;8.24;79.19
76594;BME280;65482;50.240;14.302;2024-03-02T03:05:11;98609.66;;;8.26;79.19
76594;BME280;65482;50.240;14.302;2024-03-02T03:07:39;98610.63;;;8.25;79.02
76594;BME280;65482;50.240;14.302;2024-03-02T03:10:05;98609.81;;;8.24;79.16
76594;BME280;65482;50.240;14.302;2024-03-02T03:12:32;98610.97;;;8.22;79.01
76594;BME280;65482;50.240;14.302;2024-03-02T03:14:58;98614.25;;;8.24;79.22
76594;BME280;65482;50.240;14.302;2024-03-02T03:17:24;98617.53;;;8.26;79.19
76594;BME280;65482;50.240;14.302;2024-03-02T03:19:50;98615.56;;;8.28;79.24
76594;BME280;65482;50.240;14.302;2024-03-02T03:22:16;98612.09;;;8.27;79.10
76594;BME280;65482;50.240;14.302;2024-03-02T03:24:41;98623.09;;;8.31;79.21
76594;BME280;65482;50.240;14.302;2024-03-02T03:27:07;98623.25;;;8.29;78.98
76594;BME280;65482;50.240;14.302;2024-03-02T03:29:33;98618.00;;;8.29;79.01
76594;BME280;65482;50.240;14.302;2024-03-02T03:31:58;98615.84;;;8.33;78.77
76594;BME280;65482;50.240;14.302;2024-03-02T03:34:24;98624.09;;;8.30;78.55
76594;BME280;65482;50.240;14.302;2024-03-02T03:36:50;98621.09;;;8.33;78.63
76594;BME280;65482;50.240;14.302;2024-03-02T03:39:15;98615.56;;;8.28;78.82
76594;BME280;65482;50.240;14.302;2024-03-02T03:41:41;98628.50;;;8.29;79.01
76594;BME280;65482;50.240;14.302;2024-03-02T03:44:06;98626.22;;;8.26;78.57
76594;BME280;65482;50.240;14.302;2024-03-02T03:46:32;98622.59;;;8.27;78.91
76594;BME280;65482;50.240;14.302;2024-03-02T03:48:57;98628.84;;;8.26;78.82
76594;BME280;65482;50.240;14.302;2024-03-02T03:51:23;98627.84;;;8.27;78.88
76594;BME280;65482;50.240;14.302;2024-03-02T03:53:49;98626.88;;;8.28;78.72
76594;BME280;65482;50.240;14.302;2024-03-02T03:56:14;98623.91;;;8.31;78.91
76594;BME280;65482;50.240;14.302;2024-03-02T03:58:40;98634.41;;;8.31;79.02
76594;BME280;65482;50.240;14.302;2024-03-02T04:01:05;98635.72;;;8.35;78.50
76594;BME280;65482;50.240;14.302;2024-03-02T04:03:31;98636.22;;;8.31;78.15
76594;BME280;65482;50.240;14.302;2024-03-02T04:05:57;98634.91;;;8.27;78.57
76594;BME280;65482;50.240;14.302;2024-03-02T04:08:22;98633.09;;;8.27;78.86
76594;BME280;65482;50.240;14.302;2024-03-02T04:10:48;98637.53;;;8.27;79.09
76594;BME280;65482;50.240;14.302;2024-03-02T04:13:14;98638.19;;;8.29;79.00
76594;BME280;65482;50.240;14.302;2024-03-02T04:15:39;98643.44;;;8.29;78.95
76594;BME280;65482;50.240;14.302;2024-03-02T04:18:06;98639.00;;;8.29;78.78
76594;BME280;65482;50.240;14.302;2024-03-02T04:20:32;98641.47;;;8.31;79.23
76594;BME280;65482;50.240;14.302;2024-03-02T04:22:57;98643.78;;;8.34;78.75
76594;BME280;65482;50.240;14.302;2024-03-02T04:25:23;98641.31;;;8.32;78.68
76594;BME280;65482;50.240;14.302;2024-03-02T04:27:48;98645.75;;;8.32;78.82
76594;BME280;65482;50.240;14.302;2024-03-02T04:30:14;98650.16;;;8.31;78.56
76594;BME280;65482;50.240;14.302;2024-03-02T04:32:40;98657.59;;;8.28;78.46
76594;BME280;65482;50.240;14.302;2024-03-02T04:35:06;98655.63;;;8.30;78.77
76594;BME280;65482;50.240;14.302;2024-03-02T04:37:35;98661.84;;;8.29;79.00
76594;BME280;65482;50.240;14.302;2024-03-02T04:40:01;98671.38;;;8.30;78.90
76594;BME280;65482;50.240;14.302;2024-03-02T04:42:26;98674.00;;;8.30;79.31
76594;BME280;65482;50.240;14.302;2024-03-02T04:44:52;98674.97;;;8.29;79.21
76594;BME280;65482;50.240;14.302;2024-03-02T04:47:17;98673.34;;;8.28;79.45
76594;BME280;65482;50.240;14.302;2024-03-02T04:49:43;98676.44;;;8.31;79.38
76594;BME280;65482;50.240;14.302;2024-03-02T04:52:09;98675.63;;;8.31;79.28
76594;BME280;65482;50.240;14.302;2024-03-02T04:54:35;98674.16;;;8.28;79.13
76594;BME280;65482;50.240;14.302;2024-03-02T04:57:23;98681.88;;;8.30;79.14
76594;BME280;65482;50.240;14.302;2024-03-02T04:59:49;98682.69;;;8.30;79.54
76594;BME280;65482;50.240;14.302;2024-03-02T05:02:14;98686.94;;;8.31;79.24
76594;BME280;65482;50.240;14.302;2024-03-02T05:04:40;98695.16;;;8.36;79.19
76594;BME280;65482;50.240;14.302;2024-03-02T05:07:07;98692.22;;;8.31;79.48
76594;BME280;65482;50.240;14.302;2024-03-02T05:09:32;98696.16;;;8.35;79.14
76594;BME280;65482;50.240;14.302;2024-03-02T05:11:58;98702.56;;;8.33;79.37
76594;BME280;65482;50.240;14.302;2024-03-02T05:14:36;98706.00;;;8.33;79.34
76594;BME280;65482;50.240;14.302;2024-03-02T05:17:02;98705.19;;;8.33;79.25
76594;BME280;65482;50.240;14.302;2024-03-02T05:19:28;98703.38;;;8.33;79.43
76594;BME280;65482;50.240;14.302;2024-03-02T05:21:53;98706.66;;;8.35;79.38
76594;BME280;65482;50.240;14.302;2024-03-02T05:24:19;98700.75;;;8.33;79.52
76594;BME280;65482;50.240;14.302;2024-03-02T05:26:44;98702.25;;;8.36;79.49
76594;BME280;65482;50.240;14.302;2024-03-02T05:29:10;98704.72;;;8.38;79.56
76594;BME280;65482;50.240;14.302;2024-03-02T05:31:36;98709.13;;;8.37;79.64
76594;BME280;65482;50.240;14.302;2024-03-02T05:34:01;98710.94;;;8.36;79.58
76594;BME280;65482;50.240;14.302;2024-03-02T05:36:27;98712.09;;;8.34;79.44
76594;BME280;65482;50.240;14.302;2024-03-02T05:38:53;98717.50;;;8.32;79.48
76594;BME280;65482;50.240;14.302;2024-03-02T05:41:19;98715.53;;;8.34;79.49
76594;BME280;65482;50.240;14.302;2024-03-02T05:43:44;98722.63;;;8.34;79.44
76594;BME280;65482;50.240;14.302;2024-03-02T05:46:10;98725.41;;;8.32;79.40
76594;BME280;65482;50.240;14.302;2024-03-02T05:48:36;98741.00;;;8.26;79.87
76594;BME280;65482;50.240;14.302;2024-03-02T05:51:01;98737.53;;;8.25;79.86
76594;BME280;65482;50.240;14.302;2024-03-02T05:53:27;98739.19;;;8.26;79.97
76594;BME280;65482;50.240;14.302;2024-03-02T05:55:52;98738.53;;;8.24;80.01
76594;BME280;65482;50.240;14.302;2024-03-02T05:58:22;98744.94;;;8.22;80.08
76594;BME280;65482;50.240;14.302;2024-03-02T06:01:16;98749.38;;;8.21;80.32
76594;BME280;65482;50.240;14.302;2024-03-02T06:03:43;98746.41;;;8.24;80.33
76594;BME280;65482;50.240;14.302;2024-03-02T06:06:09;98750.22;;;8.22;80.28
76594;BME280;65482;50.240;14.302;2024-03-02T06:08:35;98742.78;;;8.25;80.47
76594;BME280;65482;50.240;14.302;2024-03-02T06:11:01;98754.81;;;8.28;80.40
76594;BME280;65482;50.240;14.302;2024-03-02T06:13:27;98748.53;;;8.29;80.33
76594;BME280;65482;50.240;14.302;2024-03-02T06:15:52;98752.66;;;8.31;80.53
76594;BME280;65482;50.240;14.302;2024-03-02T06:18:18;98755.94;;;8.33;80.17
76594;BME280;65482;50.240;14.302;2024-03-02T06:20:45;98773.03;;;8.38;79.99
76594;BME280;65482;50.240;14.302;2024-03-02T06:23:11;98763.34;;;8.38;79.97
76594;BME280;65482;50.240;14.302;2024-03-02T06:25:36;98765.81;;;8.40;80.08
76594;BME280;65482;50.240;14.302;2024-03-02T06:28:02;98765.66;;;8.41;79.69
76594;BME280;65482;50.240;14.302;2024-03-02T06:30:29;98762.72;;;8.44;79.91
76594;BME280;65482;50.240;14.302;2024-03-02T06:32:55;98765.00;;;8.47;79.55
76594;BME280;65482;50.240;14.302;2024-03-02T06:35:20;98759.56;;;8.49;79.60
76594;BME280;65482;50.240;14.302;2024-03-02T06:37:46;98759.56;;;8.49;79.61
76594;BME280;65482;50.240;14.302;2024-03-02T06:40:12;98754.16;;;8.50;79.72
76594;BME280;65482;50.240;14.302;2024-03-02T06:42:38;98766.97;;;8.53;79.84
76594;BME280;65482;50.240;14.302;2024-03-02T06:45:03;98768.59;;;8.54;79.65
76594;BME280;65482;50.240;14.302;2024-03-02T06:47:29;98771.06;;;8.56;79.34
76594;BME280;65482;50.240;14.302;2024-03-02T06:49:55;98771.75;;;8.58;79.55
76594;BME280;65482;50.240;14.302;2024-03-02T06:52:22;98774.00;;;8.61;79.51
76594;BME280;65482;50.240;14.302;2024-03-02T06:54:48;98776.66;;;8.61;79.50
76594;BME280;65482;50.240;14.302;2024-03-02T06:57:14;98774.19;;;8.60;79.61
76594;BME280;65482;50.240;14.302;2024-03-02T06:59:39;98784.53;;;8.61;79.40
76594;BME280;65482;50.240;14.302;2024-03-02T07:02:05;98786.19;;;8.62;79.25
76594;BME280;65482;50.240;14.302;2024-03-02T07:04:35;98785.38;;;8.62;79.27
76594;BME280;65482;50.240;14.302;2024-03-02T07:07:00;98788.81;;;8.62;79.48
76594;BME280;65482;50.240;14.302;2024-03-02T07:09:26;98785.03;;;8.65;79.53
76594;BME280;65482;50.240;14.302;2024-03-02T07:11:52;98785.03;;;8.65;79.71
76594;BME280;65482;50.240;14.302;2024-03-02T07:14:17;98790.78;;;8.68;79.36
76594;BME280;65482;50.240;14.302;2024-03-02T07:16:43;98791.75;;;8.67;78.85
76594;BME280;65482;50.240;14.302;2024-03-02T07:19:09;98790.13;;;8.66;78.90
76594;BME280;65482;50.240;14.302;2024-03-02T07:21:35;98796.03;;;8.68;79.24
76594;BME280;65482;50.240;14.302;2024-03-02T07:24:01;98797.84;;;8.68;78.68
76594;BME280;65482;50.240;14.302;2024-03-02T07:26:30;98804.25;;;8.73;78.44
76594;BME280;65482;50.240;14.302;2024-03-02T07:28:56;98809.53;;;8.73;78.03
76594;BME280;65482;50.240;14.302;2024-03-02T07:31:22;98820.84;;;8.74;77.93
76594;BME280;65482;50.240;14.302;2024-03-02T07:33:48;98824.13;;;8.76;77.86
76594;BME280;65482;50.240;14.302;2024-03-02T07:36:13;98821.66;;;8.83;77.64
76594;BME280;65482;50.240;14.302;2024-03-02T07:38:39;98826.25;;;8.81;77.40
76594;BME280;65482;50.240;14.302;2024-03-02T07:41:07;98825.09;;;8.83;77.48
76594;BME280;65482;50.240;14.302;2024-03-02T07:43:33;98827.91;;;8.90;77.34
76594;BME280;65482;50.240;14.302;2024-03-02T07:45:59;98835.13;;;8.88;76.53
76594;BME280;65482;50.240;14.302;2024-03-02T07:48:25;98830.53;;;8.90;76.67
76594;BME280;65482;50.240;14.302;2024-03-02T07:50:52;98840.53;;;8.94;76.06
76594;BME280;65482;50.240;14.302;2024-03-02T07:53:18;98845.50;;;8.98;76.08
76594;BME280;65482;50.240;14.302;2024-03-02T07:55:44;98843.00;;;9.04;76.00
76594;BME280;65482;50.240;14.302;2024-03-02T07:58:09;98840.06;;;9.07;75.56
76594;BME280;65482;50.240;14.302;2024-03-02T08:00:39;98836.06;;;9.20;75.18
76594;BME280;65482;50.240;14.302;2024-03-02T08:03:05;98824.69;;;9.35;75.23
76594;BME280;65482;50.240;14.302;2024-03-02T08:05:30;98823.81;;;9.51;74.92
76594;BME280;65482;50.240;14.302;2024-03-02T08:07:56;98828.03;;;9.69;74.41
76594;BME280;65482;50.240;14.302;2024-03-02T08:10:22;98822.47;;;9.95;73.68
76594;BME280;65482;50.240;14.302;2024-03-02T08:12:47;98823.66;;;10.15;73.26
76594;BME280;65482;50.240;14.302;2024-03-02T08:15:13;98820.31;;;10.22;72.43
76594;BME280;65482;50.240;14.302;2024-03-02T08:17:39;98818.94;;;10.34;71.03
76594;BME280;65482;50.240;14.302;2024-03-02T08:20:14;98822.50;;;10.41;71.31
76594;BME280;65482;50.240;14.302;2024-03-02T08:22:40;98825.44;;;10.46;70.57
76594;BME280;65482;50.240;14.302;2024-03-02T08:25:06;98825.78;;;10.43;70.50
76594;BME280;65482;50.240;14.302;2024-03-02T08:27:32;98823.81;;;10.45;70.30
76594;BME280;65482;50.240;14.302;2024-03-02T08:29:58;98819.75;;;10.58;69.82
76594;BME280;65482;50.240;14.302;2024-03-02T08:32:24;98822.69;;;10.63;69.34
76594;BME280;65482;50.240;14.302;2024-03-02T08:34:49;98828.34;;;10.74;68.63
76594;BME280;65482;50.240;14.302;2024-03-02T08:37:15;98822.00;;;10.84;67.99
76594;BME280;65482;50.240;14.302;2024-03-02T08:39:41;98829.72;;;10.85;68.12
76594;BME280;65482;50.240;14.302;2024-03-02T08:42:06;98843.03;;;10.92;68.20
76594;BME280;65482;50.240;14.302;2024-03-02T08:44:33;98841.03;;;10.94;68.21
76594;BME280;65482;50.240;14.302;2024-03-02T08:46:59;98837.16;;;11.05;67.48
76594;BME280;65482;50.240;14.302;2024-03-02T08:49:26;98845.31;;;11.10;67.46
76594;BME280;65482;50.240;14.302;2024-03-02T08:51:51;98842.16;;;11.14;66.89
76594;BME280;65482;50.240;14.302;2024-03-02T08:54:21;98843.31;;;11.12;66.70
76594;BME280;65482;50.240;14.302;2024-03-02T08:56:48;98847.53;;;11.21;65.96
76594;BME280;65482;50.240;14.302;2024-03-02T08:59:14;98845.63;;;11.30;66.39
76594;BME280;65482;50.240;14.302;2024-03-02T09:01:39;98849.25;;;11.44;66.39
76594;BME280;65482;50.240;14.302;2024-03-02T09:04:07;98854.91;;;11.55;65.21
76594;BME280;65482;50.240;14.302;2024-03-02T09:06:36;98844.16;;;11.72;65.04
76594;BME280;65482;50.240;14.302;2024-03-02T09:09:01;98843.31;;;11.86;64.63
76594;BME280;65482;50.240;14.302;2024-03-02T09:11:28;98855.66;;;11.94;63.47
76594;BME280;65482;50.240;14.302;2024-03-02T09:13:55;98852.56;;;11.90;63.10
76594;BME280;65482;50.240;14.302;2024-03-02T09:16:21;98848.78;;;11.85;62.59
76594;BME280;65482;50.240;14.302;2024-03-02T09:18:50;98843.59;;;11.91;62.27
76594;BME280;65482;50.240;14.302;2024-03-02T09:21:15;98846.78;;;12.02;61.40
76594;BME280;65482;50.240;14.302;2024-03-02T09:23:42;98843.75;;;12.20;61.79
76594;BME280;65482;50.240;14.302;2024-03-02T09:26:09;98842.72;;;12.42;61.79
76594;BME280;65482;50.240;14.302;2024-03-02T09:28:35;98838.25;;;12.64;61.32
76594;BME280;65482;50.240;14.302;2024-03-02T09:31:01;98837.44;;;12.85;60.78
76594;BME280;65482;50.240;14.302;2024-03-02T09:33:26;98840.75;;;12.94;60.16
76594;BME280;65482;50.240;14.302;2024-03-02T09:35:52;98840.06;;;13.13;59.65
76594;BME280;65482;50.240;14.302;2024-03-02T09:38:18;98849.41;;;13.09;58.94
76594;BME280;65482;50.240;14.302;2024-03-02T09:40:43;98845.31;;;13.07;58.96
76594;BME280;65482;50.240;14.302;2024-03-02T09:43:09;98836.53;;;13.06;58.44
76594;BME280;65482;50.240;14.302;2024-03-02T09:45:36;98847.75;;;13.08;58.32
76594;BME280;65482;50.240;14.302;2024-03-02T09:48:02;98836.78;;;13.11;57.84
76594;BME280;65482;50.240;14.302;2024-03-02T09:50:27;98832.22;;;12.99;57.82
76594;BME280;65482;50.240;14.302;2024-03-02T09:52:53;98833.88;;;13.00;58.19
76594;BME280;65482;50.240;14.302;2024-03-02T09:55:20;98832.50;;;12.82;59.06
76594;BME280;65482;50.240;14.302;2024-03-02T09:57:46;98827.53;;;12.72;59.60
76594;BME280;65482;50.240;14.302;2024-03-02T10:00:14;98823.78;;;12.60;59.13
76594;BME280;65482;50.240;14.302;2024-03-02T10:02:43;98826.38;;;12.53;59.00
76594;BME280;65482;50.240;14.302;2024-03-02T10:05:09;98823.81;;;12.67;58.78
76594;BME280;65482;50.240;14.302;2024-03-02T10:07:36;98823.78;;;12.60;58.52
76594;BME280;65482;50.240;14.302;2024-03-02T10:10:13;98824.22;;;12.64;58.55
76594;BME280;65482;50.240;14.302;2024-03-02T10:12:39;98823.00;;;12.66;58.55
76594;BME280;65482;50.240;14.302;2024-03-02T10:15:06;98824.03;;;12.65;57.89
76594;BME280;65482;50.240;14.302;2024-03-02T10:17:33;98822.94;;;12.81;57.51
76594;BME280;65482;50.240;14.302;2024-03-02T10:19:58;98830.97;;;12.94;57.93
76594;BME280;65482;50.240;14.302;2024-03-02T10:22:24;98830.16;;;12.94;57.70
76594;BME280;65482;50.240;14.302;2024-03-02T10:24:52;98825.63;;;12.88;58.12
76594;BME280;65482;50.240;14.302;2024-03-02T10:27:23;98828.03;;;12.83;58.70
76594;BME280;65482;50.240;14.302;2024-03-02T10:29:49;98821.31;;;12.87;58.02
76594;BME280;65482;50.240;14.302;2024-03-02T10:32:15;98826.41;;;12.82;58.11
76594;BME280;65482;50.240;14.302;2024-03-02T10:34:42;98821.63;;;12.49;57.51
76594;BME280;65482;50.240;14.302;2024-03-02T10:37:10;98828.13;;;12.46;58.52
76594;BME280;65482;50.240;14.302;2024-03-02T10:39:36;98831.53;;;12.40;58.63
76594;BME280;65482;50.240;14.302;2024-03-02T10:42:03;98825.44;;;12.40;58.29
76594;BME280;65482;50.240;14.302;2024-03-02T10:44:30;98831.34;;;12.42;58.29
76594;BME280;65482;50.240;14.302;2024-03-02T10:46:59;98831.13;;;12.43;58.44
76594;BME280;65482;50.240;14.302;2024-03-02T10:49:26;98823.78;;;12.39;58.24
76594;BME280;65482;50.240;14.302;2024-03-02T10:51:52;98823.13;;;12.15;59.23
76594;BME280;65482;50.240;14.302;2024-03-02T10:54:18;98820.31;;;12.17;59.04
76594;BME280;65482;50.240;14.302;2024-03-02T10:56:44;98813.56;;;12.14;59.37
76594;BME280;65482;50.240;14.302;2024-03-02T10:59:33;98815.72;;;12.04;58.62
76594;BME280;65482;50.240;14.302;2024-03-02T11:02:01;98814.97;;;11.95;58.56
76594;BME280;65482;50.240;14.302;2024-03-02T11:04:28;98809.72;;;11.80;59.40
76594;BME280;65482;50.240;14.302;2024-03-02T11:07:06;98802.09;;;11.55;59.90
76594;BME280;65482;50.240;14.302;2024-03-02T11:09:38;98792.84;;;11.81;59.37
76594;BME280;65482;50.240;14.302;2024-03-02T11:12:23;98799.34;;;12.15;59.56
76594;BME280;65482;50.240;14.302;2024-03-02T11:14:55;98791.91;;;12.47;57.45
76594;BME280;65482;50.240;14.302;2024-03-02T11:17:21;98799.84;;;12.47;56.76
76594;BME280;65482;50.240;14.302;2024-03-02T11:19:47;98796.44;;;12.53;56.84
76594;BME280;65482;50.240;14.302;2024-03-02T11:22:15;98790.38;;;12.59;55.59
76594;BME280;65482;50.240;14.302;2024-03-02T11:24:48;98792.22;;;12.37;55.56
76594;BME280;65482;50.240;14.302;2024-03-02T11:27:14;98791.72;;;12.27;56.33
76594;BME280;65482;50.240;14.302;2024-03-02T11:30:00;98796.75;;;12.43;56.19
76594;BME280;65482;50.240;14.302;2024-03-02T11:32:25;98788.31;;;12.54;56.21
76594;BME280;65482;50.240;14.302;2024-03-02T11:34:51;98787.19;;;12.64;55.47
76594;BME280;65482;50.240;14.302;2024-03-02T11:37:19;98782.38;;;12.74;54.72
76594;BME280;65482;50.240;14.302;2024-03-02T11:39:46;98785.63;;;12.76;55.28
76594;BME280;65482;50.240;14.302;2024-03-02T11:42:14;98779.38;;;12.84;54.97
76594;BME280;65482;50.240;14.302;2024-03-02T11:44:43;98781.44;;;12.88;54.11
76594;BME280;65482;50.240;14.302;2024-03-02T11:47:11;98781.09;;;12.98;54.24
76594;BME280;65482;50.240;14.302;2024-03-02T11:49:43;98776.63;;;12.99;53.46
76594;BME280;65482;50.240;14.302;2024-03-02T11:52:12;98770.81;;;12.82;53.73
76594;BME280;65482;50.240;14.302;2024-03-02T11:54:39;98776.88;;;12.76;54.12
76594;BME280;65482;50.240;14.302;2024-03-02T11:57:07;98775.16;;;12.89;54.45
76594;BME280;65482;50.240;14.302;2024-03-02T11:59:33;98773.19;;;12.70;54.29
76594;BME280;65482;50.240;14.302;2024-03-02T12:02:00;98771.31;;;12.64;54.22
76594;BME280;65482;50.240;14.302;2024-03-02T12:04:26;98775.06;;;12.76;54.42
76594;BME280;65482;50.240;14.302;2024-03-02T12:06:56;98771.88;;;12.87;53.71
76594;BME280;65482;50.240;14.302;2024-03-02T12:09:25;98768.94;;;13.04;52.91
76594;BME280;65482;50.240;14.302;2024-03-02T12:12:04;98771.31;;;12.99;52.72
76594;BME280;65482;50.240;14.302;2024-03-02T12:14:35;98764.25;;;13.06;52.86
76594;BME280;65482;50.240;14.302;2024-03-02T12:17:01;98767.78;;;13.13;53.80
76594;BME280;65482;50.240;14.302;2024-03-02T12:19:28;98775.34;;;13.23;52.82
76594;BME280;65482;50.240;14.302;2024-03-02T12:21:57;98766.09;;;13.40;52.85
76594;BME280;65482;50.240;14.302;2024-03-02T12:24:22;98762.03;;;13.44;51.58
76594;BME280;65482;50.240;14.302;2024-03-02T12:26:52;98764.38;;;13.26;52.16
76594;BME280;65482;50.240;14.302;2024-03-02T12:29:19;98761.19;;;13.09;52.55
76594;BME280;65482;50.240;14.302;2024-03-02T12:31:51;98768.53;;;13.07;52.79
76594;BME280;65482;50.240;14.302;2024-03-02T12:34:18;98759.81;;;13.13;52.78
76594;BME280;65482;50.240;14.302;2024-03-02T12:36:45;98768.16;;;13.10;53.13
76594;BME280;65482;50.240;14.302;2024-03-02T12:39:13;98766.94;;;13.12;52.53
76594;BME280;65482;50.240;14.302;2024-03-02T12:41:41;98763.72;;;13.17;52.66
76594;BME280;65482;50.240;14.302;2024-03-02T12:44:07;98769.41;;;13.21;52.83
76594;BME280;65482;50.240;14.302;2024-03-02T12:46:33;98764.63;;;13.03;52.64
76594;BME280;65482;50.240;14.302;2024-03-02T12:49:07;98769.25;;;12.87;53.48
76594;BME280;65482;50.240;14.302;2024-03-02T12:51:33;98761.84;;;12.83;53.57
76594;BME280;65482;50.240;14.302;2024-03-02T12:53:59;98754.25;;;12.73;53.74
76594;BME280;65482;50.240;14.302;2024-03-02T12:56:25;98762.44;;;12.78;53.28
76594;BME280;65482;50.240;14.302;2024-03-02T12:58:55;98760.72;;;12.64;53.20